Atlanta, NY (14808)

12:30 AM EST on November 22, 2014 (GMT -0500)
Atlanta | Change Station
CLOSE
Current Station
Personal Weather Station
Location: Atlanta, NY
Elevation: 1329 ft
Nearby Weather Stations

Elev 1329 ft 42.56 °N, 77.47 °W | Updated 13 minutes ago

Mostly Cloudy
Mostly Cloudy
18.0 °F
Feels Like 7 °F
N
8.9
Wind Variable Wind from SSW

Today
High -- | Low -- °F
--% Chance of Precip.
Yesterday
High -- | Low -- °F
Precip. -- in
7:09 AM 4:42 PM
Waning Crescent, 0% visible
Pressure 30.48 in
Visibility 10.0 miles
Clouds Few 3400 ft
Windchill 7 °F
Dew Point 10 °F
Humidity 70%
Rainfall 0.00 in
Snow Depth Not available.
UV 0 out of 12
Pollen .10 out of 12
Air Quality Not available.
Flu Activity Not available.
METAR KDSV 220454Z AUTO 16006KT 10SM FEW034 M06/M12 A3042 RMK AO2 SLP319 T10561122 410171150

More Conditions Fewer Conditions

Pressure 30.48 in
Visibility 10.0 miles
Clouds Few 3400 ft
Windchill 7 °F
Dew Point 10 °F
Humidity 70%
Rainfall 0.00 in
Snow Depth Not available.
UV 0 out of 12
Pollen .10 out of 12
Air Quality Not available.
Flu Activity Not available.
METAR KDSV 220454Z AUTO 16006KT 10SM FEW034 M06/M12 A3042 RMK AO2 SLP319 T10561122 410171150

More Conditions Fewer Conditions

10-Day Weather Forecast

Almanac

Astronomy

Nov. 22, 2014 Rise Set
Actual Time
Civil Twilight
Nautical Twilight
Astronomical Twilight
Moon
Length of Visible Light
Length of Day
Tomorrow will be .
, % of the Moon is Illuminated

Today's Extremes

State Highs State Lows

Community

WunderPhotos

Upload Photos

1,772,774 photos uploaded!

WunderBlogs® & News

Nearby

Air Quality

  Air Quality AQ Index Pollutant
Not available.

Snow Depth

Station Depth Elevation

Earthquake Activity

City Distance Mag. Time & Date
Minimum magnitude displayed is 2.5.

Coastal Water Temperatures

Place Temperature

Nearby Weather Stations